createdAt,value
2019-05-21T00:01:34.686Z,97177.32
2019-05-21T00:04:05.062Z,97181.94
2019-05-21T00:06:35.297Z,97188.17
2019-05-21T00:09:06.473Z,97186.91
2019-05-21T00:11:36.813Z,97183.50
2019-05-21T00:14:06.991Z,97186.91
2019-05-21T00:16:37.383Z,97184.86
2019-05-21T00:19:07.896Z,97195.39
2019-05-21T00:21:38.249Z,97190.28
2019-05-21T00:24:08.454Z,97188.81
2019-05-21T00:26:38.664Z,97188.25
2019-05-21T00:29:44.801Z,97188.69
2019-05-21T00:32:50.868Z,97183.73
2019-05-21T00:35:57.109Z,97188.69
2019-05-21T00:39:04.935Z,97183.48
2019-05-21T00:42:01.163Z,97191.50
2019-05-21T00:44:38.432Z,97190.25
2019-05-21T00:47:15.362Z,97192.26
2019-05-21T00:49:45.548Z,97180.73
2019-05-21T00:52:15.699Z,97187.97
2019-05-21T00:54:46.006Z,97187.95
2019-05-21T00:57:16.395Z,97191.80
2019-05-21T00:59:48.024Z,97193.61
2019-05-21T01:02:20.940Z,97186.62
2019-05-21T01:05:00.423Z,97190.78
2019-05-21T01:07:23.487Z,97183.64
2019-05-21T01:09:56.595Z,97191.07
2019-05-21T01:12:27.162Z,97182.38
2019-05-21T01:14:57.366Z,97183.72
2019-05-21T01:17:27.585Z,97191.48
2019-05-21T01:19:57.720Z,97187.87
2019-05-21T01:22:27.869Z,97190.38
2019-05-21T01:24:58.016Z,97191.52
2019-05-21T01:27:28.131Z,97192.66
2019-05-21T01:29:58.449Z,97189.70
2019-05-21T01:32:28.667Z,97191.27
2019-05-21T01:35:16.028Z,97183.09
2019-05-21T01:37:33.600Z,97191.03
2019-05-21T01:40:03.874Z,97191.27
2019-05-21T01:42:34.534Z,97191.27
2019-05-21T01:45:05.354Z,97190.56
2019-05-21T01:47:35.605Z,97192.38
2019-05-21T01:50:05.951Z,97186.04
2019-05-21T01:52:36.233Z,97188.29
2019-05-21T01:55:06.495Z,97185.30
2019-05-21T01:57:36.655Z,97191.53
2019-05-21T02:00:07.172Z,97190.02
2019-05-21T02:02:39.745Z,97190.27
2019-05-21T02:05:10.082Z,97187.38
2019-05-21T02:07:40.966Z,97194.23
2019-05-21T02:10:11.420Z,97195.69
2019-05-21T02:12:41.545Z,97193.44
2019-05-21T02:15:12.320Z,97193.44
2019-05-21T02:17:48.033Z,97194.88
2019-05-21T02:20:20.379Z,97197.05
2019-05-21T02:22:51.398Z,97204.98
2019-05-21T02:25:22.040Z,97209.67
2019-05-21T02:27:52.253Z,97208.78
2019-05-21T02:30:22.810Z,97203.70
2019-05-21T02:32:53.009Z,97209.88
2019-05-21T02:35:23.112Z,97209.88
2019-05-21T02:37:55.961Z,97211.02
2019-05-21T02:40:27.228Z,97208.31
2019-05-21T02:42:57.504Z,97211.45
2019-05-21T02:45:27.841Z,97212.34
2019-05-21T02:47:58.202Z,97213.70
2019-05-21T02:50:28.375Z,97208.84
2019-05-21T02:52:58.917Z,97212.34
2019-05-21T02:55:29.319Z,97216.72
2019-05-21T02:57:59.989Z,97208.68
2019-05-21T03:00:48.061Z,97208.12
2019-05-21T03:03:20.677Z,97209.48
2019-05-21T03:05:50.781Z,97209.91
2019-05-21T03:08:20.936Z,97211.02
2019-05-21T03:10:51.099Z,97212.25
2019-05-21T03:13:21.600Z,97214.49
2019-05-21T03:15:52.170Z,97219.20
2019-05-21T03:18:22.673Z,97220.16
2019-05-21T03:20:52.898Z,97218.09
2019-05-21T03:23:26.246Z,97217.20
2019-05-21T03:25:56.339Z,97222.95
2019-05-21T03:28:26.564Z,97218.98
2019-05-21T03:30:56.729Z,97225.77
2019-05-21T03:33:27.932Z,97221.96
2019-05-21T03:35:58.305Z,97224.42
2019-05-21T03:38:28.868Z,97229.64
2019-05-21T03:41:00.942Z,97234.87
2019-05-21T03:43:31.585Z,97234.83
2019-05-21T03:46:01.723Z,97239.03
2019-05-21T03:48:32.179Z,97239.11
2019-05-21T03:51:02.295Z,97240.94
2019-05-21T03:53:32.573Z,97243.51
2019-05-21T03:56:02.806Z,97246.59
2019-05-21T03:58:33.000Z,97251.08
2019-05-21T04:01:03.186Z,97250.50
2019-05-21T04:03:33.430Z,97255.36
2019-05-21T04:06:04.175Z,97251.39
2019-05-21T04:08:34.494Z,97258.70
2019-05-21T04:11:05.926Z,97259.59
2019-05-21T04:13:37.599Z,97263.44
2019-05-21T04:16:25.695Z,97264.87
2019-05-21T04:19:05.978Z,97265.89
2019-05-21T04:21:36.461Z,97269.33
2019-05-21T04:24:09.057Z,97267.08
2019-05-21T04:26:39.889Z,97268.35
2019-05-21T04:29:10.049Z,97270.72
2019-05-21T04:31:40.435Z,97277.41
2019-05-21T04:34:10.580Z,97280.92
2019-05-21T04:36:40.923Z,97281.25
2019-05-21T04:39:11.234Z,97276.61
2019-05-21T04:41:44.024Z,97276.86
2019-05-21T04:44:14.428Z,97276.39
2019-05-21T04:46:44.772Z,97281.09
2019-05-21T04:49:15.008Z,97282.53
2019-05-21T04:51:45.154Z,97283.25
2019-05-21T04:54:16.844Z,97279.90
2019-05-21T04:56:47.194Z,97280.53
2019-05-21T04:59:17.523Z,97286.89
2019-05-21T05:01:47.696Z,97284.52
2019-05-21T05:04:21.962Z,97284.81
2019-05-21T05:06:49.857Z,97289.27
2019-05-21T05:09:20.015Z,97287.14
2019-05-21T05:11:50.337Z,97293.45
2019-05-21T05:14:20.648Z,97297.67
2019-05-21T05:16:51.906Z,97299.25
2019-05-21T05:19:22.071Z,97297.34
2019-05-21T05:21:52.215Z,97295.18
2019-05-21T05:24:22.566Z,97293.91
2019-05-21T05:26:54.367Z,97295.95
2019-05-21T05:29:24.932Z,97301.92
2019-05-21T05:31:55.072Z,97301.56
2019-05-21T05:34:25.343Z,97295.81
2019-05-21T05:36:55.563Z,97304.07
2019-05-21T05:39:25.676Z,97302.41
2019-05-21T05:41:55.834Z,97301.56
2019-05-21T05:44:30.912Z,97301.86
2019-05-21T05:47:01.199Z,97305.67
2019-05-21T05:49:38.670Z,97303.94
2019-05-21T05:52:08.912Z,97307.20
2019-05-21T05:54:39.411Z,97303.47
2019-05-21T05:57:09.739Z,97316.20
2019-05-21T05:59:40.016Z,97307.53
2019-05-21T06:02:10.181Z,97313.75
2019-05-21T06:04:40.363Z,97312.20
2019-05-21T06:07:10.987Z,97315.24
2019-05-21T06:09:41.288Z,97315.41
2019-05-21T06:12:11.607Z,97318.03
2019-05-21T06:14:43.015Z,97310.80
2019-05-21T06:17:13.173Z,97313.17
2019-05-21T06:19:43.357Z,97307.67
2019-05-21T06:22:13.746Z,97308.55
2019-05-21T06:24:43.932Z,97308.22
2019-05-21T06:27:14.224Z,97319.05
2019-05-21T06:29:44.864Z,97316.55
2019-05-21T06:32:15.073Z,97316.55
2019-05-21T06:34:48.621Z,97313.89
2019-05-21T06:37:17.474Z,97317.70
2019-05-21T06:39:48.011Z,97318.03
2019-05-21T06:42:18.373Z,97315.80
2019-05-21T06:44:51.017Z,97322.48
2019-05-21T06:47:21.334Z,97324.17
2019-05-21T06:49:51.567Z,97321.21
2019-05-21T06:52:21.858Z,97335.22
2019-05-21T06:54:51.925Z,97334.67
2019-05-21T06:57:22.196Z,97339.15
2019-05-21T06:59:52.322Z,97347.74
2019-05-21T07:02:22.663Z,97336.02
2019-05-21T07:04:53.505Z,97340.03
2019-05-21T07:07:24.781Z,97335.50
2019-05-21T07:09:55.025Z,97331.66
2019-05-21T07:12:25.258Z,97341.94
2019-05-21T07:14:55.597Z,97336.86
2019-05-21T07:17:25.843Z,97338.93
2019-05-21T07:19:56.016Z,97337.88
2019-05-21T07:22:26.324Z,97338.02
2019-05-21T07:24:57.029Z,97337.71
2019-05-21T07:27:27.326Z,97329.42
2019-05-21T07:29:57.565Z,97339.06
2019-05-21T07:32:27.740Z,97340.42
2019-05-21T07:34:57.974Z,97346.39
2019-05-21T07:37:28.261Z,97350.13
2019-05-21T07:39:58.393Z,97347.11
2019-05-21T07:42:28.827Z,97341.69
2019-05-21T07:44:59.078Z,97348.21
2019-05-21T07:47:29.278Z,97352.22
2019-05-21T07:49:59.379Z,97344.90
2019-05-21T07:52:29.636Z,97344.95
2019-05-21T07:55:00.228Z,97340.72
2019-05-21T07:57:30.446Z,97341.44
2019-05-21T08:00:00.796Z,97346.39
2019-05-21T08:02:31.218Z,97342.96
2019-05-21T08:05:02.318Z,97334.42
2019-05-21T08:07:33.415Z,97330.36
2019-05-21T08:10:03.827Z,97329.80
2019-05-21T08:12:39.393Z,97324.64
2019-05-21T08:15:09.686Z,97338.12
2019-05-21T08:17:40.035Z,97350.92
2019-05-21T08:20:11.253Z,97354.38
2019-05-21T08:22:41.493Z,97343.68
2019-05-21T08:25:14.467Z,97339.23
2019-05-21T08:27:43.761Z,97338.51
2019-05-21T08:30:14.847Z,97347.41
2019-05-21T08:32:45.205Z,97348.17
2019-05-21T08:35:15.541Z,97342.34
2019-05-21T08:37:45.623Z,97334.92
2019-05-21T08:40:16.532Z,97328.66
2019-05-21T08:42:46.776Z,97326.95
2019-05-21T08:45:17.385Z,97320.36
2019-05-21T08:47:47.649Z,97318.58
2019-05-21T08:50:17.841Z,97324.92
2019-05-21T08:52:48.504Z,97322.00
2019-05-21T08:55:18.781Z,97327.03
2019-05-21T08:58:05.769Z,97325.45
2019-05-21T09:00:22.222Z,97335.25
2019-05-21T09:02:52.751Z,97341.09
2019-05-21T09:05:23.497Z,97352.73
2019-05-21T09:07:55.026Z,97353.11
2019-05-21T09:10:25.258Z,97349.51
2019-05-21T09:12:55.504Z,97361.03
2019-05-21T09:15:25.843Z,97365.44
2019-05-21T09:17:55.983Z,97362.60
2019-05-21T09:20:26.498Z,97374.62
2019-05-21T09:22:56.892Z,97377.09
2019-05-21T09:25:28.035Z,97385.36
2019-05-21T09:27:58.488Z,97377.81
2019-05-21T09:30:28.865Z,97385.61
2019-05-21T09:32:59.391Z,97390.61
2019-05-21T09:35:31.096Z,97388.91
2019-05-21T09:38:01.281Z,97389.00
2019-05-21T09:40:32.250Z,97399.42
2019-05-21T09:43:02.562Z,97395.44
2019-05-21T09:45:32.728Z,97401.72
2019-05-21T09:48:02.940Z,97405.14
2019-05-21T09:50:34.764Z,97400.98
2019-05-21T09:53:05.127Z,97412.05
2019-05-21T09:55:35.427Z,97405.56
2019-05-21T09:58:34.034Z,97411.27
2019-05-21T10:01:25.691Z,97415.52
2019-05-21T10:03:59.311Z,97423.14
2019-05-21T10:06:29.946Z,97424.50
2019-05-21T10:09:00.077Z,97422.02
2019-05-21T10:11:30.269Z,97429.98
2019-05-21T10:14:00.591Z,97426.93
2019-05-21T10:16:30.836Z,97439.19
2019-05-21T10:19:01.068Z,97437.97
2019-05-21T10:21:31.595Z,97436.66
2019-05-21T10:24:02.037Z,97446.22
2019-05-21T10:26:32.629Z,97442.88
2019-05-21T10:29:03.186Z,97451.36
2019-05-21T10:31:33.598Z,97457.80
2019-05-21T10:34:04.100Z,97457.12
2019-05-21T10:36:34.355Z,97460.34
2019-05-21T10:39:06.206Z,97461.20
2019-05-21T10:41:36.431Z,97463.52
2019-05-21T10:44:07.956Z,97467.12
2019-05-21T10:46:38.713Z,97475.01
2019-05-21T10:49:08.871Z,97474.84
2019-05-21T10:51:41.182Z,97470.47
2019-05-21T10:54:11.442Z,97475.01
2019-05-21T10:56:47.913Z,97473.14
2019-05-21T10:59:14.747Z,97476.02
2019-05-21T11:01:55.025Z,97478.14
2019-05-21T11:04:32.625Z,97482.22
2019-05-21T11:07:02.965Z,97489.38
2019-05-21T11:09:33.803Z,97492.38
2019-05-21T11:12:06.256Z,97496.02
2019-05-21T11:14:36.444Z,97499.36
2019-05-21T11:17:09.683Z,97503.34
2019-05-21T11:19:39.819Z,97499.30
2019-05-21T11:22:10.247Z,97512.05
2019-05-21T11:24:40.427Z,97514.12
2019-05-21T11:27:11.289Z,97516.86
2019-05-21T11:29:41.600Z,97516.86
2019-05-21T11:32:12.222Z,97518.02
2019-05-21T11:34:42.804Z,97518.58
2019-05-21T11:37:13.193Z,97518.45
2019-05-21T11:39:43.900Z,97523.53
2019-05-21T11:42:14.464Z,97530.59
2019-05-21T11:44:44.799Z,97528.18
2019-05-21T11:47:15.056Z,97539.48
2019-05-21T11:49:45.975Z,97541.86
2019-05-21T11:52:16.341Z,97545.66
2019-05-21T11:54:47.135Z,97541.25
2019-05-21T11:57:17.682Z,97541.28
2019-05-21T11:59:48.479Z,97545.17
2019-05-21T12:02:18.945Z,97547.27
2019-05-21T12:04:49.771Z,97542.18
2019-05-21T12:07:21.398Z,97550.52
2019-05-21T12:09:52.099Z,97555.39
2019-05-21T12:12:22.706Z,97555.91
2019-05-21T12:14:53.194Z,97557.64
2019-05-21T12:17:23.872Z,97562.27
2019-05-21T12:19:54.212Z,97558.16
2019-05-21T12:22:24.913Z,97567.80
2019-05-21T12:24:55.529Z,97562.03
2019-05-21T12:27:25.903Z,97568.91
2019-05-21T12:29:56.593Z,97570.52
2019-05-21T12:32:27.548Z,97568.81
2019-05-21T12:34:59.356Z,97574.34
2019-05-21T12:37:30.199Z,97572.11
2019-05-21T12:40:00.740Z,97573.85
2019-05-21T12:42:31.152Z,97582.89
2019-05-21T12:45:03.657Z,97584.05
2019-05-21T12:47:34.152Z,97590.52
2019-05-21T12:50:05.259Z,97586.52
2019-05-21T12:52:36.254Z,97593.33
2019-05-21T12:55:06.918Z,97603.39
2019-05-21T12:57:38.236Z,97597.38
2019-05-21T13:00:12.712Z,97601.89
2019-05-21T13:02:43.342Z,97602.88
2019-05-21T13:05:14.259Z,97601.30
2019-05-21T13:07:45.445Z,97609.73
2019-05-21T13:10:17.574Z,97612.84
2019-05-21T13:12:51.500Z,97614.20
2019-05-21T13:15:22.301Z,97615.04
2019-05-21T13:17:52.978Z,97621.68
2019-05-21T13:20:23.612Z,97620.81
2019-05-21T13:22:54.708Z,97632.64
2019-05-21T13:25:25.055Z,97625.66
2019-05-21T13:27:57.755Z,97638.78
2019-05-21T13:30:30.769Z,97639.88
2019-05-21T13:33:01.199Z,97638.98
2019-05-21T13:35:31.567Z,97649.48
2019-05-21T13:38:02.267Z,97653.89
2019-05-21T13:40:33.555Z,97658.37
2019-05-21T13:43:04.091Z,97655.12
2019-05-21T13:45:34.587Z,97665.16
2019-05-21T13:48:05.312Z,97654.60
2019-05-21T13:50:35.844Z,97664.45
2019-05-21T13:53:06.670Z,97662.59
2019-05-21T13:55:37.113Z,97666.23
2019-05-21T13:58:07.883Z,97666.61
2019-05-21T14:00:42.257Z,97677.20
2019-05-21T14:03:14.930Z,97677.20
2019-05-21T14:05:45.754Z,97682.83
2019-05-21T14:08:16.296Z,97677.70
2019-05-21T14:10:47.118Z,97678.50
2019-05-21T14:13:17.352Z,97688.44
2019-05-21T14:15:49.041Z,97684.45
2019-05-21T14:18:19.379Z,97690.05
2019-05-21T14:20:49.855Z,97689.36
2019-05-21T14:23:20.669Z,97693.47
2019-05-21T14:25:50.959Z,97694.45
2019-05-21T14:28:21.357Z,97693.63
2019-05-21T14:30:51.901Z,97701.34
2019-05-21T14:33:22.613Z,97707.59
2019-05-21T14:35:52.806Z,97704.78
2019-05-21T14:38:23.258Z,97707.00
2019-05-21T14:40:53.871Z,97715.16
2019-05-21T14:43:24.260Z,97718.11
2019-05-21T14:45:57.529Z,97724.95
2019-05-21T14:48:27.860Z,97722.87
2019-05-21T14:50:58.376Z,97733.41
2019-05-21T14:53:29.086Z,97738.51
2019-05-21T14:55:59.366Z,97736.33
2019-05-21T14:58:29.926Z,97740.76
2019-05-21T15:01:00.442Z,97736.17
2019-05-21T15:03:32.780Z,97747.42
2019-05-21T15:06:03.073Z,97742.28
2019-05-21T15:08:33.381Z,97749.80
2019-05-21T15:11:03.918Z,97747.38
2019-05-21T15:13:34.224Z,97749.92
2019-05-21T15:16:04.797Z,97742.36
2019-05-21T15:27:54.565Z,97755.78
2019-05-21T15:30:25.893Z,97754.47
2019-05-21T15:32:56.252Z,97759.22
2019-05-21T15:35:26.500Z,97760.80
2019-05-21T15:37:56.629Z,97765.59
2019-05-21T15:40:26.863Z,97766.23
2019-05-21T15:42:57.038Z,97767.50
2019-05-21T15:45:27.642Z,97770.82
2019-05-21T15:47:58.128Z,97766.27
2019-05-21T15:50:31.464Z,97772.22
2019-05-21T15:53:01.665Z,97774.59
2019-05-21T15:55:31.995Z,97777.31
2019-05-21T15:58:02.208Z,97776.88
2019-05-21T16:00:33.761Z,97778.29
2019-05-21T16:03:04.402Z,97785.75
2019-05-21T16:05:34.751Z,97786.64
2019-05-21T16:08:05.710Z,97786.01
2019-05-21T16:10:37.993Z,97788.92
2019-05-21T16:13:08.220Z,97793.58
2019-05-21T16:15:38.826Z,97785.34
2019-05-21T16:18:09.264Z,97798.78
2019-05-21T16:20:42.470Z,97799.59
2019-05-21T16:23:11.864Z,97798.56
2019-05-21T16:25:42.312Z,97801.52
2019-05-21T16:28:13.138Z,97804.16
2019-05-21T16:30:43.437Z,97810.11
2019-05-21T16:33:14.063Z,97810.11
2019-05-21T16:35:44.675Z,97810.84
2019-05-21T16:38:16.716Z,97812.61
2019-05-21T16:40:47.098Z,97815.70
2019-05-21T16:43:17.425Z,97817.08
2019-05-21T16:45:50.270Z,97826.56
2019-05-21T16:48:22.458Z,97826.36
2019-05-21T16:50:52.732Z,97822.91
2019-05-21T16:53:23.054Z,97821.48
2019-05-21T16:55:56.381Z,97827.06
2019-05-21T16:58:27.051Z,97823.78
2019-05-21T17:00:57.552Z,97824.92
2019-05-21T17:03:27.882Z,97825.16
2019-05-21T17:05:58.838Z,97826.11
2019-05-21T17:08:29.136Z,97829.85
2019-05-21T17:11:00.137Z,97828.83
2019-05-21T17:13:30.701Z,97836.41
2019-05-21T17:16:03.867Z,97840.48
2019-05-21T17:18:34.454Z,97840.48
2019-05-21T17:21:04.654Z,97837.30
2019-05-21T17:23:35.428Z,97848.45
2019-05-21T17:26:08.997Z,97846.79
2019-05-21T17:28:40.413Z,97849.40
2019-05-21T17:31:12.387Z,97844.08
2019-05-21T17:33:42.864Z,97852.11
2019-05-21T17:36:13.353Z,97857.31
2019-05-21T17:38:45.215Z,97855.00
2019-05-21T17:41:15.562Z,97856.98
2019-05-21T17:43:46.255Z,97858.11
2019-05-21T17:46:16.653Z,97866.87
2019-05-21T17:48:46.949Z,97865.66
2019-05-21T17:51:17.657Z,97861.04
2019-05-21T17:53:48.323Z,97865.59
2019-05-21T17:56:18.806Z,97869.73
2019-05-21T17:58:49.279Z,97870.79
2019-05-21T18:01:20.545Z,97872.92
2019-05-21T18:03:50.951Z,97876.77
2019-05-21T18:06:21.352Z,97876.52
2019-05-21T18:08:52.112Z,97886.88
2019-05-21T18:11:23.978Z,97891.67
2019-05-21T18:13:55.243Z,97889.58
2019-05-21T18:16:26.479Z,97890.05
2019-05-21T18:18:57.522Z,97896.42
2019-05-21T18:21:28.667Z,97891.72
2019-05-21T18:23:59.501Z,97894.84
2019-05-21T18:26:30.295Z,97902.72
2019-05-21T18:29:00.768Z,97904.95
2019-05-21T18:31:31.549Z,97905.67
2019-05-21T18:34:03.845Z,97910.84
2019-05-21T18:36:34.637Z,97914.36
2019-05-21T18:39:08.150Z,97919.78
2019-05-21T18:41:39.062Z,97928.69
2019-05-21T18:44:09.632Z,97932.75
2019-05-21T18:46:40.577Z,97935.47
2019-05-21T18:49:11.161Z,97932.11
2019-05-21T18:51:41.813Z,97939.02
2019-05-21T18:54:12.571Z,97941.18
2019-05-21T18:56:43.560Z,97941.50
2019-05-21T18:59:14.507Z,97942.37
2019-05-21T19:01:45.683Z,97940.92
2019-05-21T19:04:16.149Z,97950.41
2019-05-21T19:06:47.572Z,97948.56
2019-05-21T19:09:20.372Z,97944.85
2019-05-21T19:11:51.143Z,97954.92
2019-05-21T19:14:21.923Z,97958.73
2019-05-21T19:16:52.595Z,97965.56
2019-05-21T19:19:23.175Z,97967.47
2019-05-21T19:21:53.746Z,97975.69
2019-05-21T19:24:24.468Z,97981.23
2019-05-21T19:26:54.952Z,97981.45
2019-05-21T19:29:25.837Z,97986.39
2019-05-21T19:31:56.251Z,97986.97
2019-05-21T19:34:27.245Z,97996.14
2019-05-21T19:37:01.276Z,97996.45
2019-05-21T19:39:32.098Z,97994.61
2019-05-21T19:42:02.653Z,98002.00
2019-05-21T19:44:33.077Z,98005.02
2019-05-21T19:47:05.048Z,98008.51
2019-05-21T19:49:35.442Z,98010.44
2019-05-21T19:52:06.323Z,98013.16
2019-05-21T19:54:36.797Z,98014.50
2019-05-21T19:57:07.574Z,98010.56
2019-05-21T19:59:39.972Z,98022.20
2019-05-21T20:02:12.264Z,98022.00
2019-05-21T20:04:43.033Z,98023.12
2019-05-21T20:07:16.897Z,98031.80
2019-05-21T20:09:49.322Z,98034.95
2019-05-21T20:12:20.359Z,98036.18
2019-05-21T20:14:50.747Z,98036.52
2019-05-21T20:17:21.703Z,98043.01
2019-05-21T20:19:53.191Z,98042.47
2019-05-21T20:22:26.338Z,98038.97
2019-05-21T20:24:58.529Z,98048.19
2019-05-21T20:27:30.378Z,98049.80
2019-05-21T20:30:12.145Z,98050.33
2019-05-21T20:32:36.187Z,98058.14
2019-05-21T20:35:08.517Z,98054.13
2019-05-21T20:37:40.540Z,98052.63
2019-05-21T20:40:13.650Z,98053.69
2019-05-21T20:42:44.734Z,98058.09
2019-05-21T20:45:16.758Z,98060.31
2019-05-21T20:47:47.161Z,98060.80
2019-05-21T20:50:19.041Z,98059.66
2019-05-21T20:52:51.063Z,98065.94
2019-05-21T20:55:22.729Z,98063.08
2019-05-21T20:57:53.148Z,98060.31
2019-05-21T21:00:29.864Z,98058.18
2019-05-21T21:03:01.170Z,98060.13
2019-05-21T21:05:32.006Z,98061.98
2019-05-21T21:08:02.609Z,98060.89
2019-05-21T21:10:33.493Z,98057.16
2019-05-21T21:13:04.985Z,98060.13
2019-05-21T21:15:35.791Z,98064.20
2019-05-21T21:18:06.792Z,98065.23
2019-05-21T21:20:38.867Z,98066.09
2019-05-21T21:23:09.130Z,98066.64
2019-05-21T21:25:39.395Z,98071.20
2019-05-21T21:28:10.637Z,98069.61
2019-05-21T21:30:40.962Z,98070.79
2019-05-21T21:33:12.587Z,98074.22
2019-05-21T21:35:43.507Z,98075.03
2019-05-21T21:38:17.348Z,98076.07
2019-05-21T21:40:49.068Z,98075.52
2019-05-21T21:43:21.057Z,98076.33
2019-05-21T21:45:51.740Z,98075.52
2019-05-21T21:48:22.004Z,98080.68
2019-05-21T21:50:53.016Z,98083.16
2019-05-21T21:53:23.397Z,98079.59
2019-05-21T21:55:53.674Z,98083.47
2019-05-21T21:58:23.889Z,98081.80
2019-05-21T22:01:44.410Z,98080.45
2019-05-21T22:04:16.507Z,98085.00
2019-05-21T22:06:48.812Z,98085.32
2019-05-21T22:09:33.630Z,98088.31
2019-05-21T22:12:12.720Z,98091.78
2019-05-21T22:14:50.941Z,98100.40
2019-05-21T22:17:17.822Z,98094.44
2019-05-21T22:19:48.336Z,98090.38
2019-05-21T22:22:18.580Z,98093.13
2019-05-21T22:24:49.418Z,98092.04
2019-05-21T22:27:19.698Z,98093.94
2019-05-21T22:29:49.907Z,98095.08
2019-05-21T22:32:20.193Z,98101.80
2019-05-21T22:34:50.352Z,98103.47
2019-05-21T22:37:23.663Z,98100.99
2019-05-21T22:39:54.343Z,98106.13
2019-05-21T22:42:24.877Z,98104.83
2019-05-21T22:45:07.235Z,98104.33
2019-05-21T22:47:28.929Z,98108.27
2019-05-21T22:49:59.118Z,98111.52
2019-05-21T22:52:29.363Z,98103.18
2019-05-21T22:54:59.598Z,98110.27
2019-05-21T22:57:29.935Z,98104.84
2019-05-21T23:00:00.207Z,98109.72
2019-05-21T23:02:33.343Z,98113.78
2019-05-21T23:05:03.814Z,98115.62
2019-05-21T23:07:34.527Z,98106.95
2019-05-21T23:10:06.305Z,98109.13
2019-05-21T23:12:37.032Z,98107.50
2019-05-21T23:15:23.228Z,98107.01
2019-05-21T23:17:41.432Z,98109.77
2019-05-21T23:20:14.141Z,98106.52
2019-05-21T23:22:47.986Z,98107.55
2019-05-21T23:25:19.252Z,98108.86
2019-05-21T23:27:49.798Z,98110.39
2019-05-21T23:30:20.464Z,98106.91
2019-05-21T23:32:51.427Z,98111.75
2019-05-21T23:35:22.537Z,98112.24
2019-05-21T23:37:53.186Z,98113.31
2019-05-21T23:40:24.511Z,98112.19
2019-05-21T23:42:55.133Z,98106.77
2019-05-21T23:45:25.610Z,98119.23
2019-05-21T23:47:56.321Z,98112.95
2019-05-21T23:50:28.212Z,98112.45
2019-05-21T23:52:59.383Z,98112.95
2019-05-21T23:55:29.840Z,98107.53
2019-05-21T23:58:00.023Z,98112.95
